Time;durP1;ratioP1;P1;durP2;ratioP2;P2;SDS_P1;SDS_P2;PMS_P1;PMS_P2;Temp;Humidity;BMP_temperature;BMP_pressure;BME280_temperature;BME280_humidity;BME280_pressure;Samples;Min_cycle;Max_cycle;Signal;HPM_P1;HPM_P2
2021/09/02 00:01:02;;;;;;;1.50;0.60;;;;;;;6.60;100.00;100520.50;2578793;55;20132;-75
2021/09/02 00:03:31;;;;;;;0.82;0.45;;;;;;;6.59;100.00;100529.41;2579092;55;20178;-72
2021/09/02 00:06:00;;;;;;;0.93;0.35;;;;;;;6.59;100.00;100535.59;2578861;55;20109;-73
2021/09/02 00:08:27;;;;;;;1.90;0.90;;;;;;;6.58;100.00;100533.88;2578859;55;20113;-73
2021/09/02 00:10:55;;;;;;;1.00;0.60;;;;;;;6.58;100.00;100536.53;2578619;55;20117;-75
2021/09/02 00:13:23;;;;;;;3.03;0.60;;;;;;;6.58;100.00;100544.47;2579088;55;20120;-73
2021/09/02 00:15:51;;;;;;;1.27;0.60;;;;;;;6.54;100.00;100543.81;2578925;55;20205;-75
2021/09/02 00:18:19;;;;;;;1.80;0.60;;;;;;;6.54;100.00;100540.28;2578722;55;20610;-73
2021/09/02 00:20:47;;;;;;;0.50;0.40;;;;;;;6.59;100.00;100543.53;2578893;55;20136;-74
2021/09/02 00:23:16;;;;;;;1.73;0.50;;;;;;;6.60;100.00;100547.03;2578842;55;20118;-73
2021/09/02 00:25:44;;;;;;;0.70;0.60;;;;;;;6.68;100.00;100550.06;2578776;55;20124;-73
2021/09/02 00:28:12;;;;;;;1.10;0.70;;;;;;;6.64;100.00;100543.25;2573640;55;20109;-74
2021/09/02 00:30:39;;;;;;;0.90;0.50;;;;;;;6.66;100.00;100546.66;2578787;55;20114;-75
2021/09/02 00:33:07;;;;;;;0.90;0.47;;;;;;;6.67;100.00;100548.34;2578881;55;20126;-74
2021/09/02 00:35:35;;;;;;;1.87;0.45;;;;;;;6.68;100.00;100540.31;2578748;55;20149;-75
2021/09/02 00:38:03;;;;;;;1.00;0.50;;;;;;;6.66;100.00;100542.22;2578626;55;20104;-73
2021/09/02 00:40:32;;;;;;;1.27;0.55;;;;;;;6.65;100.00;100545.78;2578748;55;20661;-76
2021/09/02 00:43:03;;;;;;;1.40;0.40;;;;;;;6.67;100.00;100540.41;2578601;55;20164;-73
2021/09/02 00:45:31;;;;;;;1.17;0.75;;;;;;;6.72;100.00;100548.06;2578724;55;20161;-75
2021/09/02 00:47:59;;;;;;;2.55;0.98;;;;;;;6.76;100.00;100541.63;2578576;55;20122;-75
2021/09/02 00:50:28;;;;;;;1.40;0.82;;;;;;;6.74;100.00;100541.75;2578649;55;20139;-75
2021/09/02 00:52:57;;;;;;;7.12;0.70;;;;;;;6.73;100.00;100544.47;2578811;55;20117;-75
2021/09/02 00:55:25;;;;;;;1.62;0.60;;;;;;;6.71;100.00;100533.94;2578698;55;20131;-75
2021/09/02 00:57:54;;;;;;;1.00;0.68;;;;;;;6.74;100.00;100552.34;2578718;55;20121;-74
2021/09/02 01:00:22;;;;;;;2.15;0.70;;;;;;;6.75;100.00;100554.03;2578527;55;20116;-73
2021/09/02 01:02:50;;;;;;;0.40;0.40;;;;;;;6.77;100.00;100557.44;2578512;55;20117;-74
2021/09/02 01:05:20;;;;;;;2.05;1.85;;;;;;;6.75;100.00;100554.03;2578716;55;20176;-75
2021/09/02 01:07:48;;;;;;;2.90;1.75;;;;;;;6.79;100.00;100557.38;2578642;55;20140;-73
2021/09/02 01:10:16;;;;;;;1.35;0.80;;;;;;;6.79;100.00;100560.00;2578626;55;20117;-75
2021/09/02 01:12:46;;;;;;;0.90;0.60;;;;;;;6.75;100.00;100550.53;2578385;55;20118;-73
2021/09/02 01:15:18;;;;;;;2.92;0.50;;;;;;;6.76;100.00;100563.69;2578644;55;20124;-73
2021/09/02 01:17:47;;;;;;;1.87;0.37;;;;;;;6.71;100.00;100551.69;2578684;55;20121;-73
2021/09/02 01:20:17;;;;;;;2.70;0.60;;;;;;;6.68;100.00;100561.53;2578493;55;20109;-76
2021/09/02 01:22:47;;;;;;;1.17;0.40;;;;;;;6.71;100.00;100560.47;2578647;55;20117;-75
2021/09/02 01:25:18;;;;;;;1.33;0.70;;;;;;;6.78;100.00;100558.31;2578377;55;20122;-75
2021/09/02 01:27:48;;;;;;;0.57;0.37;;;;;;;6.75;100.00;100561.12;2578704;55;20133;-74
2021/09/02 01:30:16;;;;;;;2.58;1.00;;;;;;;6.72;100.00;100570.16;2578488;55;20133;-75
2021/09/02 01:32:47;;;;;;;1.12;0.40;;;;;;;6.72;100.00;100570.16;2578437;55;20109;-73
2021/09/02 01:35:16;;;;;;;0.90;0.30;;;;;;;6.72;100.00;100567.50;2578662;55;20117;-73
2021/09/02 01:37:46;;;;;;;1.75;0.50;;;;;;;6.75;100.00;100569.94;2578556;55;20504;-73
2021/09/02 01:40:18;;;;;;;0.82;0.50;;;;;;;6.69;100.00;100575.63;2578403;55;20519;-73
2021/09/02 01:42:47;;;;;;;3.08;0.55;;;;;;;6.66;100.00;100579.34;2578442;55;20120;-74
2021/09/02 01:45:16;;;;;;;2.03;0.55;;;;;;;6.61;100.00;100573.44;2578515;55;20125;-75
2021/09/02 01:47:44;;;;;;;3.12;0.57;;;;;;;6.56;100.00;100577.31;2578409;55;20497;-75
2021/09/02 01:50:16;;;;;;;1.45;0.40;;;;;;;6.53;100.00;100584.53;2578569;55;20116;-73
2021/09/02 01:52:45;;;;;;;2.28;0.70;;;;;;;6.48;100.00;100591.88;2578617;55;20101;-73
2021/09/02 01:55:13;;;;;;;1.87;0.60;;;;;;;6.42;100.00;100592.28;2578420;55;20132;-73
2021/09/02 01:57:43;;;;;;;1.73;1.15;;;;;;;6.41;100.00;100595.84;2578437;55;20142;-75
2021/09/02 02:00:13;;;;;;;1.30;0.57;;;;;;;6.37;100.00;100583.72;2573326;55;20117;-75
2021/09/02 02:02:41;;;;;;;2.08;0.50;;;;;;;6.35;100.00;100593.56;2578423;55;20116;-73
2021/09/02 02:05:10;;;;;;;1.65;0.60;;;;;;;6.30;100.00;100595.63;2578383;55;20128;-75
2021/09/02 02:07:39;;;;;;;0.90;0.40;;;;;;;6.33;100.00;100587.50;2578593;55;20135;-73
2021/09/02 02:10:12;;;;;;;0.65;0.47;;;;;;;6.33;100.00;100587.50;2578469;55;20118;-73
2021/09/02 02:12:40;;;;;;;0.57;0.43;;;;;;;6.25;100.00;100591.47;2578301;55;20121;-73
2021/09/02 02:15:11;;;;;;;0.93;0.45;;;;;;;6.25;100.00;100599.41;2578638;55;20121;-73
2021/09/02 02:17:39;;;;;;;0.80;0.50;;;;;;;6.22;100.00;100596.94;2578535;55;20136;-75
2021/09/02 02:20:08;;;;;;;0.93;0.40;;;;;;;6.23;100.00;100603.97;2578568;55;20122;-73
2021/09/02 02:22:36;;;;;;;0.82;0.40;;;;;;;6.18;100.00;100602.53;2578317;55;20389;-75
2021/09/02 02:25:05;;;;;;;0.75;0.40;;;;;;;6.15;100.00;100603.56;2578533;55;20117;-75
2021/09/02 02:27:32;;;;;;;1.20;0.20;;;;;;;6.13;100.00;100616.03;2578360;55;20128;-75
2021/09/02 02:30:01;;;;;;;1.58;0.45;;;;;;;6.08;100.00;100607.50;2578401;55;20117;-75
2021/09/02 02:32:30;;;;;;;0.85;0.35;;;;;;;6.06;100.00;100614.69;2578345;55;20615;-73
2021/09/02 02:34:57;;;;;;;2.85;0.65;;;;;;;6.01;100.00;100614.91;2578218;55;20109;-73
2021/09/02 02:37:25;;;;;;;0.40;0.30;;;;;;;5.97;100.00;100613.37;2578529;55;20623;-75
2021/09/02 02:39:53;;;;;;;0.75;0.40;;;;;;;5.97;100.00;100608.09;2578262;55;20132;-73
2021/09/02 02:42:21;;;;;;;1.58;0.35;;;;;;;5.95;100.00;100610.81;2578306;55;20496;-73
2021/09/02 02:44:49;;;;;;;2.17;0.32;;;;;;;5.94;100.00;100609.13;2578328;55;20114;-75
2021/09/02 02:47:17;;;;;;;1.37;0.47;;;;;;;5.92;100.00;100613.66;2578384;55;20104;-76
2021/09/02 02:49:46;;;;;;;1.08;0.40;;;;;;;5.85;100.00;100614.94;2578211;55;20121;-75
2021/09/02 02:52:14;;;;;;;0.62;0.30;;;;;;;5.79;100.00;100615.28;2578162;55;20117;-75
2021/09/02 02:54:42;;;;;;;0.90;0.43;;;;;;;5.79;100.00;100618.78;2573176;55;20120;-75
2021/09/02 02:57:09;;;;;;;0.55;0.30;;;;;;;5.81;100.00;100623.97;2578257;55;20135;-73
2021/09/02 02:59:37;;;;;;;1.20;0.60;;;;;;;5.80;100.00;100619.63;2578289;55;20135;-75
2021/09/02 03:02:05;;;;;;;1.90;1.55;;;;;;;5.76;100.00;100623.41;2578011;55;20121;-75
2021/09/02 03:04:33;;;;;;;2.80;0.40;;;;;;;5.74;100.00;100617.34;2578196;55;20134;-74
2021/09/02 03:07:03;;;;;;;0.60;0.40;;;;;;;5.73;100.00;100615.63;2578202;55;20143;-73
2021/09/02 03:09:30;;;;;;;0.75;0.40;;;;;;;5.69;100.00;100621.09;2578213;55;20113;-75
2021/09/02 03:11:58;;;;;;;0.73;0.50;;;;;;;5.69;100.00;100621.09;2578266;55;20128;-74
2021/09/02 03:14:26;;;;;;;1.40;0.40;;;;;;;5.75;100.00;100624.34;2573127;55;20140;-73
2021/09/02 03:16:55;;;;;;;0.57;0.30;;;;;;;5.70;100.00;100622.78;2578185;55;20158;-73
2021/09/02 03:19:22;;;;;;;3.70;0.93;;;;;;;5.71;100.00;100623.66;2578254;55;20121;-73
2021/09/02 03:21:50;;;;;;;2.45;0.55;;;;;;;5.68;100.00;100616.75;2578199;55;20128;-73
2021/09/02 03:24:19;;;;;;;0.95;0.40;;;;;;;5.69;100.00;100621.09;2573051;55;20114;-75
2021/09/02 03:26:47;;;;;;;1.27;0.65;;;;;;;5.70;100.00;100627.25;2578682;55;20165;-76
2021/09/02 03:29:15;;;;;;;3.40;1.52;;;;;;;5.68;100.00;100634.44;2578875;55;20132;-76
2021/09/02 03:31:43;;;;;;;3.20;1.92;;;;;;;5.65;100.00;100631.94;2578868;55;20124;-73
2021/09/02 03:34:10;;;;;;;4.70;2.92;;;;;;;5.69;100.00;100634.31;2578913;55;20116;-75
2021/09/02 03:36:38;;;;;;;4.37;2.10;;;;;;;5.77;100.00;100638.34;2578938;55;20496;-75
2021/09/02 03:39:06;;;;;;;3.25;0.93;;;;;;;5.78;100.00;100634.75;2579090;55;20118;-75
2021/09/02 03:41:35;;;;;;;1.67;0.90;;;;;;;5.81;100.00;100629.28;2578916;55;20220;-73
2021/09/02 03:44:04;;;;;;;1.48;0.70;;;;;;;5.83;100.00;100627.41;2578991;55;20694;-75
2021/09/02 03:46:31;;;;;;;3.03;0.75;;;;;;;5.86;100.00;100640.47;2578874;55;20101;-73
2021/09/02 03:48:59;;;;;;;2.10;0.77;;;;;;;5.98;100.00;100646.87;2578920;55;20113;-74
2021/09/02 03:51:27;;;;;;;0.90;0.50;;;;;;;6.12;100.00;100646.97;2578815;55;20108;-75
2021/09/02 03:53:55;;;;;;;1.33;0.70;;;;;;;6.25;100.00;100649.75;2578670;55;20132;-73
2021/09/02 03:56:22;;;;;;;1.42;0.62;;;;;;;6.39;100.00;100650.72;2578886;55;20659;-73
2021/09/02 03:58:52;;;;;;;0.50;0.40;;;;;;;6.52;100.00;100650.87;2578989;55;20146;-73
2021/09/02 04:01:20;;;;;;;0.52;0.47;;;;;;;6.58;100.00;100653.19;2578809;55;20143;-73
2021/09/02 04:03:48;;;;;;;0.65;0.37;;;;;;;6.62;100.00;100657.34;2578943;55;20114;-75
2021/09/02 04:06:15;;;;;;;0.30;0.30;;;;;;;6.75;100.00;100660.13;2578850;55;20173;-74
2021/09/02 04:08:43;;;;;;;2.50;0.55;;;;;;;6.82;100.00;100658.81;2578766;55;20382;-75
2021/09/02 04:11:11;;;;;;;0.93;0.40;;;;;;;6.95;100.00;100653.59;2578853;55;20117;-75
2021/09/02 04:13:39;;;;;;;0.57;0.40;;;;;;;7.13;100.00;100656.06;2578804;55;20117;-74
2021/09/02 04:16:08;;;;;;;1.40;0.88;;;;;;;7.28;100.00;100651.59;2578819;55;20160;-75
2021/09/02 04:18:36;;;;;;;0.57;0.40;;;;;;;7.42;100.00;100658.72;2578682;55;20117;-76
2021/09/02 04:21:04;;;;;;;0.60;0.37;;;;;;;7.59;100.00;100652.31;2578925;55;20113;-73
2021/09/02 04:23:32;;;;;;;2.03;0.50;;;;;;;7.81;100.00;100656.25;2578844;55;20147;-73
2021/09/02 04:26:02;;;;;;;1.00;0.73;;;;;;;7.97;100.00;100661.44;2578812;55;20157;-75
2021/09/02 04:28:29;;;;;;;1.70;0.32;;;;;;;8.12;100.00;100658.72;2573754;55;20135;-74
2021/09/02 04:30:57;;;;;;;1.00;0.40;;;;;;;8.26;100.00;100650.69;2578843;55;20561;-75
2021/09/02 04:33:27;;;;;;;0.88;0.50;;;;;;;8.38;100.00;100653.50;2578657;55;20513;-75
2021/09/02 04:35:55;;;;;;;0.90;0.40;;;;;;;8.46;100.00;100662.66;2578554;55;20515;-74
2021/09/02 04:38:23;;;;;;;0.85;0.40;;;;;;;8.61;100.00;100666.12;2578682;55;20157;-73
2021/09/02 04:40:52;;;;;;;1.10;0.40;;;;;;;8.67;100.00;100666.63;2578654;55;20124;-75
2021/09/02 04:43:20;;;;;;;0.43;0.43;;;;;;;8.81;100.00;100671.03;2578461;55;20105;-74
2021/09/02 04:45:48;;;;;;;1.75;0.55;;;;;;;8.90;100.00;100670.38;2573955;55;20105;-74
2021/09/02 04:48:17;;;;;;;0.57;0.40;;;;;;;9.04;100.00;100680.09;2578638;55;20121;-73
2021/09/02 04:50:49;;;;;;;1.23;0.60;;;;;;;9.13;100.00;100673.28;2578997;55;20132;-74
2021/09/02 04:53:17;;;;;;;1.45;0.57;;;;;;;9.29;100.00;100673.88;2578743;55;20117;-73
2021/09/02 04:55:45;;;;;;;1.55;0.57;;;;;;;9.49;100.00;100670.78;2578436;55;20117;-73
2021/09/02 04:58:14;;;;;;;5.87;0.80;;;;;;;9.67;100.00;100668.59;2578663;55;20587;-74
2021/09/02 05:00:42;;;;;;;1.90;0.70;;;;;;;9.82;100.00;100672.84;2578759;55;20094;-73
2021/09/02 05:03:10;;;;;;;1.20;0.60;;;;;;;9.92;100.00;100670.34;2578188;55;20117;-75
2021/09/02 05:05:38;;;;;;;2.62;0.52;;;;;;;9.97;99.07;100670.00;2576615;55;20125;-78
2021/09/02 05:08:07;;;;;;;2.20;0.90;;;;;;;10.11;98.62;100675.16;2578074;55;20125;-76
2021/09/02 05:10:35;;;;;;;1.83;0.50;;;;;;;10.03;96.70;100670.41;2577358;55;20687;-72
2021/09/02 05:13:04;;;;;;;0.90;0.57;;;;;;;10.13;96.90;100673.25;2576300;55;20117;-72
2021/09/02 05:15:32;;;;;;;0.93;0.40;;;;;;;10.23;97.71;100688.56;2575818;55;20113;-70
2021/09/02 05:17:59;;;;;;;1.80;0.50;;;;;;;10.29;96.39;100672.09;2575055;55;20110;-70
2021/09/02 05:20:27;;;;;;;0.50;0.40;;;;;;;10.43;95.94;100679.09;2577211;55;20121;-70
2021/09/02 05:22:55;;;;;;;2.40;0.50;;;;;;;10.49;94.71;100686.66;2578489;55;20109;-70
2021/09/02 05:25:24;;;;;;;0.98;0.57;;;;;;;10.53;95.98;100685.44;2578434;55;20125;-71
2021/09/02 05:27:52;;;;;;;1.10;0.40;;;;;;;10.67;95.06;100689.72;2578591;55;20196;-72
2021/09/02 05:30:23;;;;;;;0.88;0.47;;;;;;;10.75;93.02;100686.47;2578563;55;20631;-76
2021/09/02 05:32:51;;;;;;;1.42;0.30;;;;;;;10.73;90.26;100692.91;2578608;55;20620;-76
2021/09/02 05:35:19;;;;;;;1.15;0.70;;;;;;;10.73;93.71;100685.75;2577218;55;20128;-75
2021/09/02 05:37:47;;;;;;;3.72;0.70;;;;;;;10.86;91.64;100689.16;2577355;55;20562;-73
2021/09/02 05:40:15;;;;;;;1.60;0.57;;;;;;;11.00;93.37;100685.41;2577243;55;20185;-75
2021/09/02 05:42:44;;;;;;;1.10;0.52;;;;;;;11.24;91.80;100687.16;2578632;55;20113;-76
2021/09/02 05:45:12;;;;;;;1.73;0.85;;;;;;;11.43;90.04;100696.41;2578632;55;20117;-75
2021/09/02 05:47:40;;;;;;;2.12;0.50;;;;;;;11.48;87.22;100683.50;2578415;55;20113;-68
2021/09/02 05:50:09;;;;;;;1.60;0.70;;;;;;;11.58;88.44;100690.78;2578616;55;20102;-69
2021/09/02 05:52:37;;;;;;;1.90;0.52;;;;;;;11.61;86.41;100691.41;2578494;55;20112;-69
2021/09/02 05:55:06;;;;;;;7.05;1.20;;;;;;;11.71;86.50;100696.84;2578562;55;20135;-69
2021/09/02 05:57:34;;;;;;;0.90;0.40;;;;;;;11.86;85.17;100696.59;2578461;55;20105;-69
2021/09/02 06:00:04;;;;;;;2.22;0.90;;;;;;;11.93;83.06;100697.81;2573498;55;20512;-75
2021/09/02 06:02:39;;;;;;;2.00;0.70;;;;;;;11.99;83.48;100699.13;2578762;55;20128;-69
2021/09/02 06:05:08;;;;;;;1.37;0.40;;;;;;;12.04;83.27;100695.13;2578563;55;20631;-69
2021/09/02 06:07:35;;;;;;;2.70;0.60;;;;;;;12.24;83.39;100695.31;2578469;55;20117;-75
2021/09/02 06:10:04;;;;;;;2.35;0.60;;;;;;;12.38;81.94;100696.84;2578541;55;20115;-68
2021/09/02 06:12:32;;;;;;;1.17;0.70;;;;;;;12.29;82.43;100690.41;2578709;55;20129;-74
2021/09/02 06:15:00;;;;;;;1.25;0.68;;;;;;;12.38;81.33;100691.50;2578410;55;20101;-67
2021/09/02 06:17:29;;;;;;;1.02;0.62;;;;;;;12.43;80.48;100694.63;2578360;55;20105;-67
2021/09/02 06:19:57;;;;;;;2.45;0.55;;;;;;;12.45;80.35;100697.19;2578530;55;20125;-67
2021/09/02 06:22:24;;;;;;;4.62;0.70;;;;;;;12.48;81.17;100692.44;2573088;55;20105;-67
2021/09/02 06:24:52;;;;;;;3.37;0.57;;;;;;;12.68;81.24;100691.72;2578548;55;20151;-67
2021/09/02 06:27:21;;;;;;;2.65;1.50;;;;;;;12.92;79.05;100694.13;2573411;55;20113;-74
2021/09/02 06:29:49;;;;;;;1.83;1.35;;;;;;;13.06;77.08;100695.63;2573311;55;20129;-67
2021/09/02 06:32:16;;;;;;;3.42;0.68;;;;;;;13.13;76.84;100696.81;2578445;55;20114;-68
2021/09/02 06:34:46;;;;;;;1.40;0.45;;;;;;;13.18;73.43;100699.91;2573290;55;20504;-68
2021/09/02 06:37:14;;;;;;;1.05;0.52;;;;;;;13.30;75.25;100697.13;2578433;55;20117;-73
2021/09/02 06:39:42;;;;;;;5.22;2.50;;;;;;;13.46;76.85;100702.91;2578486;55;20507;-67
2021/09/02 06:42:10;;;;;;;15.75;9.82;;;;;;;13.61;72.37;100699.84;2578398;55;20118;-68
2021/09/02 06:44:37;;;;;;;6.97;3.47;;;;;;;13.58;73.55;100698.28;2578362;55;20120;-68
2021/09/02 06:47:05;;;;;;;4.25;1.42;;;;;;;13.53;70.69;100707.69;2578265;55;20113;-74
2021/09/02 06:49:33;;;;;;;2.00;1.40;;;;;;;13.39;70.70;100701.69;2578728;55;20143;-68
2021/09/02 06:52:04;;;;;;;1.75;1.40;;;;;;;13.39;69.67;100701.69;2573295;55;20121;-75
2021/09/02 06:54:32;;;;;;;1.58;0.80;;;;;;;13.48;69.92;100700.09;2578252;55;20147;-69
2021/09/02 06:57:00;;;;;;;2.47;1.27;;;;;;;13.55;73.32;100706.59;2578275;55;20112;-68
2021/09/02 06:59:28;;;;;;;6.20;2.50;;;;;;;13.84;72.57;100715.72;2578214;55;20123;-69
2021/09/02 07:01:56;;;;;;;3.40;1.80;;;;;;;14.08;73.07;100711.81;2578365;55;20129;-68
2021/09/02 07:04:24;;;;;;;1.20;0.77;;;;;;;14.11;70.93;100707.03;2578396;55;20125;-68
2021/09/02 07:06:51;;;;;;;3.45;1.95;;;;;;;14.22;68.91;100708.72;2578461;55;20120;-76
2021/09/02 07:09:21;;;;;;;3.50;1.58;;;;;;;14.27;68.81;100709.16;2578227;55;20113;-69
2021/09/02 07:12:03;;;;;;;2.05;1.48;;;;;;;14.28;66.71;100710.00;2578381;55;20624;-69
2021/09/02 07:14:31;;;;;;;5.80;2.08;;;;;;;14.11;68.44;100711.53;2578178;55;20615;-69
2021/09/02 07:16:59;;;;;;;4.53;1.62;;;;;;;14.09;70.05;100716.19;2578301;55;20117;-76
2021/09/02 07:19:27;;;;;;;2.67;1.40;;;;;;;14.25;70.30;100703.09;2578519;55;20496;-73
2021/09/02 07:21:55;;;;;;;2.45;1.55;;;;;;;14.51;68.84;100702.53;2578325;55;20123;-68
2021/09/02 07:24:25;;;;;;;2.90;1.98;;;;;;;14.71;66.88;100715.94;2578352;55;20189;-74
2021/09/02 07:26:53;;;;;;;3.20;2.20;;;;;;;14.62;67.14;100717.66;2578283;55;20183;-69
2021/09/02 07:29:20;;;;;;;3.37;1.50;;;;;;;14.72;65.06;100718.53;2578112;55;20154;-75
2021/09/02 07:31:49;;;;;;;2.70;1.08;;;;;;;14.68;63.27;100706.34;2578223;55;20607;-75
2021/09/02 07:34:16;;;;;;;3.97;0.65;;;;;;;14.69;65.77;100705.34;2578084;55;20127;-69
2021/09/02 07:36:44;;;;;;;6.25;2.85;;;;;;;14.58;68.53;100708.16;2578334;55;20131;-77
2021/09/02 07:39:13;;;;;;;3.83;2.00;;;;;;;14.52;66.93;100714.94;2578212;55;20546;-67
2021/09/02 07:41:43;;;;;;;1.17;0.70;;;;;;;14.53;65.38;100707.75;2573383;55;20593;-68
2021/09/02 07:44:11;;;;;;;1.62;0.82;;;;;;;14.50;67.03;100716.94;2578072;55;20695;-68
2021/09/02 07:46:39;;;;;;;1.62;0.90;;;;;;;14.32;65.53;100706.06;2578159;55;20629;-68
2021/09/02 07:49:07;;;;;;;1.25;0.98;;;;;;;14.30;65.12;100706.19;2578220;55;20118;-68
2021/09/02 07:51:34;;;;;;;1.77;1.17;;;;;;;14.32;67.26;100709.56;2578336;55;20129;-68
2021/09/02 07:54:02;;;;;;;1.55;1.00;;;;;;;14.46;67.81;100715.53;2578263;55;20110;-75
2021/09/02 07:56:30;;;;;;;1.58;0.90;;;;;;;14.43;64.14;100707.75;2578085;55;20641;-75
2021/09/02 07:58:59;;;;;;;4.80;1.40;;;;;;;14.09;64.28;100710.81;2578142;55;20117;-68
2021/09/02 08:01:27;;;;;;;3.00;0.90;;;;;;;14.01;64.61;100707.00;2577888;55;20113;-69
2021/09/02 08:03:55;;;;;;;5.80;2.72;;;;;;;14.13;63.78;100696.12;2578089;55;20114;-75
2021/09/02 08:06:23;;;;;;;1.02;0.45;;;;;;;14.01;66.29;100717.72;2578137;55;20600;-68
2021/09/02 08:08:50;;;;;;;0.68;0.40;;;;;;;14.42;68.72;100711.41;2578100;55;20158;-69
2021/09/02 08:11:19;;;;;;;1.00;0.70;;;;;;;14.51;65.61;100713.25;2578421;55;20695;-68
2021/09/02 08:13:46;;;;;;;1.12;0.37;;;;;;;13.97;64.27;100710.94;2578844;55;20121;-75
2021/09/02 08:16:15;;;;;;;1.05;0.85;;;;;;;13.63;68.50;100711.28;2579020;55;20131;-75
2021/09/02 08:18:43;;;;;;;2.28;0.60;;;;;;;13.47;69.33;100720.66;2578895;55;20165;-68
2021/09/02 08:21:11;;;;;;;2.70;1.40;;;;;;;13.93;69.12;100708.69;2578879;55;20131;-76
2021/09/02 08:23:39;;;;;;;3.62;3.33;;;;;;;13.92;65.38;100718.56;2578738;55;20109;-68
2021/09/02 08:26:07;;;;;;;3.28;1.48;;;;;;;14.37;65.61;100716.38;2573677;55;20121;-68
2021/09/02 08:28:35;;;;;;;6.25;1.35;;;;;;;14.59;65.23;100716.09;2578805;55;20101;-68
2021/09/02 08:31:02;;;;;;;9.20;7.32;;;;;;;14.46;63.64;100715.53;2579016;55;20128;-75
2021/09/02 08:33:32;;;;;;;2.97;2.70;;;;;;;14.71;63.45;100714.09;2579058;55;20101;-68
2021/09/02 08:36:00;;;;;;;4.35;2.33;;;;;;;14.69;62.08;100721.47;2578773;55;20135;-75
2021/09/02 08:38:28;;;;;;;1.58;0.62;;;;;;;15.03;62.16;100726.38;2579074;55;20824;-68
2021/09/02 08:40:56;;;;;;;1.42;0.52;;;;;;;15.13;58.14;100712.94;2578886;55;20135;-68
2021/09/02 08:43:25;;;;;;;2.15;0.70;;;;;;;14.78;62.03;100703.66;2578942;55;20497;-75
2021/09/02 08:45:52;;;;;;;7.62;4.82;;;;;;;14.83;65.28;100717.53;2578919;55;20629;-76
2021/09/02 08:48:21;;;;;;;15.80;9.65;;;;;;;15.28;63.65;100707.94;2578670;55;20501;-68
2021/09/02 08:50:50;;;;;;;4.93;1.42;;;;;;;15.67;60.51;100698.88;2578755;55;20130;-69
2021/09/02 08:53:18;;;;;;;19.08;6.70;;;;;;;15.28;58.69;100704.41;2578739;55;20616;-69
2021/09/02 08:55:46;;;;;;;14.65;1.95;;;;;;;14.62;60.20;100704.22;2578946;55;20118;-68
2021/09/02 08:58:14;;;;;;;2.05;0.70;;;;;;;14.22;62.35;100706.03;2578762;55;20127;-75
2021/09/02 09:00:41;;;;;;;1.62;0.47;;;;;;;14.14;61.33;100713.97;2573561;55;20113;-68
2021/09/02 09:03:09;;;;;;;1.95;0.37;;;;;;;14.26;61.80;100703.94;2578747;55;20167;-75
2021/09/02 09:05:37;;;;;;;1.50;0.80;;;;;;;14.13;62.05;100706.88;2578737;55;20113;-76
2021/09/02 09:08:11;;;;;;;2.80;1.48;;;;;;;14.02;61.94;100714.06;2578828;55;20135;-76
2021/09/02 09:10:41;;;;;;;2.62;1.35;;;;;;;13.83;61.85;100706.81;2578866;55;20676;-68
2021/09/02 09:13:10;;;;;;;6.37;4.68;;;;;;;13.50;62.86;100708.84;2578686;55;20135;-68
2021/09/02 09:15:40;;;;;;;22.15;5.15;;;;;;;13.50;66.02;100703.47;2578536;55;20101;-68
2021/09/02 09:18:17;;;;;;;5.50;2.40;;;;;;;14.26;69.93;100702.09;2578697;55;20520;-68
2021/09/02 09:20:46;;;;;;;3.92;1.30;;;;;;;14.83;63.28;100711.28;2578661;55;20645;-75
2021/09/02 09:23:15;;;;;;;2.53;0.60;;;;;;;14.77;59.54;100696.59;2578812;55;20131;-68
2021/09/02 09:25:43;;;;;;;3.97;1.95;;;;;;;14.50;57.93;100694.63;2578708;55;20121;-69
2021/09/02 09:28:10;;;;;;;2.60;1.50;;;;;;;14.33;60.99;100695.19;2578566;55;20117;-68
2021/09/02 09:30:39;;;;;;;43.58;13.40;;;;;;;14.14;59.88;100695.19;2573606;55;20512;-75
2021/09/02 09:33:11;;;;;;;4.35;1.75;;;;;;;13.96;59.70;100701.22;2578660;55;20113;-68
2021/09/02 09:35:42;;;;;;;2.22;1.20;;;;;;;13.75;60.21;100690.56;2578640;55;20117;-75
2021/09/02 09:38:14;;;;;;;45.55;28.65;;;;;;;13.60;59.81;100695.47;2578779;55;20117;-75
2021/09/02 09:40:44;;;;;;;2.30;1.83;;;;;;;13.57;61.34;100696.56;2578852;55;20164;-69
2021/09/02 09:43:14;;;;;;;4.50;2.53;;;;;;;13.99;62.93;100689.38;2578681;55;20170;-75
2021/09/02 09:45:45;;;;;;;2.25;1.50;;;;;;;14.86;61.27;100689.50;2578624;55;20128;-68
2021/09/02 09:48:38;;;;;;;11.75;5.15;;;;;;;15.48;56.42;100685.50;2578556;55;20117;-68
2021/09/02 09:51:12;;;;;;;9.20;7.37;;;;;;;15.19;52.91;100683.78;2577578;55;20109;-74
2021/09/02 09:53:42;;;;;;;1.50;1.40;;;;;;;14.83;53.95;100682.62;2578477;55;20118;-75
2021/09/02 09:56:12;;;;;;;3.20;2.90;;;;;;;14.60;55.84;100685.56;2578439;55;20131;-75
2021/09/02 09:58:40;;;;;;;0.65;0.40;;;;;;;14.23;53.39;100686.28;2578331;55;20137;-75
2021/09/02 10:01:08;;;;;;;0.62;0.40;;;;;;;13.76;54.46;100676.16;2578683;55;20131;-74
2021/09/02 10:03:36;;;;;;;4.18;1.77;;;;;;;13.30;58.66;100681.94;2578445;55;20516;-68
2021/09/02 10:06:05;;;;;;;1.33;0.57;;;;;;;13.20;59.85;100689.06;2578659;55;20121;-69
2021/09/02 10:08:36;;;;;;;2.72;1.10;;;;;;;13.08;60.30;100685.63;2578663;55;20489;-75
2021/09/02 10:11:06;;;;;;;2.33;2.12;;;;;;;13.01;57.95;100697.84;2578687;55;20135;-74
2021/09/02 10:13:35;;;;;;;31.73;4.00;;;;;;;12.91;61.01;100698.63;2578528;55;20127;-74
2021/09/02 10:16:04;;;;;;;5.85;3.42;;;;;;;12.89;61.16;100692.56;2578476;55;20109;-75
2021/09/02 10:18:33;;;;;;;2.15;1.70;;;;;;;12.59;59.74;100635.31;2578448;55;20611;-75
2021/09/02 10:21:05;;;;;;;1.85;1.10;;;;;;;12.89;61.89;100689.88;2578517;55;20118;-68
2021/09/02 10:23:33;;;;;;;3.22;1.92;;;;;;;13.41;62.43;100694.37;2578596;55;20131;-69
2021/09/02 10:26:01;;;;;;;6.95;2.65;;;;;;;14.02;61.25;100671.13;2578456;55;20603;-74
2021/09/02 10:28:35;;;;;;;7.12;3.42;;;;;;;14.28;57.96;100675.97;2578660;55;20114;-68
2021/09/02 10:31:05;;;;;;;2.62;1.25;;;;;;;14.24;58.75;100682.62;2578513;55;20117;-68
2021/09/02 10:33:36;;;;;;;12.52;4.03;;;;;;;14.14;57.30;100679.09;2578288;55;20727;-68
2021/09/02 10:36:44;;;;;;;2.87;1.10;;;;;;;14.11;60.00;100676.66;2578392;55;20494;-69
2021/09/02 10:39:12;;;;;;;4.85;3.83;;;;;;;13.83;61.16;100681.81;2578636;55;20139;-75
2021/09/02 10:41:51;;;;;;;6.57;3.87;;;;;;;13.69;61.75;100675.88;2578377;55;20524;-69
2021/09/02 10:44:21;;;;;;;3.50;2.37;;;;;;;13.44;64.30;100675.38;2578514;55;20120;-69
2021/09/02 10:46:52;;;;;;;3.03;1.40;;;;;;;13.30;63.11;100689.09;2578496;55;20116;-68
2021/09/02 10:49:22;;;;;;;3.42;1.92;;;;;;;13.14;64.83;100681.56;2578417;55;20109;-76
2021/09/02 10:51:52;;;;;;;3.00;2.47;;;;;;;13.06;63.89;100676.88;2578446;55;20839;-76
2021/09/02 10:54:24;;;;;;;3.60;2.17;;;;;;;13.03;64.70;100685.19;2578327;55;20102;-68
2021/09/02 10:57:12;;;;;;;6.12;3.70;;;;;;;12.87;66.08;100678.47;2578244;55;20122;-68
2021/09/02 10:59:49;;;;;;;2.28;2.08;;;;;;;12.83;66.67;100695.78;2578474;55;20667;-75
2021/09/02 11:02:43;;;;;;;3.30;1.67;;;;;;;12.90;66.93;100696.94;2578401;55;20129;-69
2021/09/02 11:05:15;;;;;;;11.60;8.82;;;;;;;13.41;68.21;100691.69;2578352;55;20120;-70
2021/09/02 11:07:45;;;;;;;42.35;20.37;;;;;;;14.26;67.04;100683.31;2578368;55;20109;-75
2021/09/02 11:10:16;;;;;;;23.83;12.52;;;;;;;14.86;62.15;100678.78;2578334;55;20117;-75
2021/09/02 11:12:45;;;;;;;15.50;7.93;;;;;;;14.89;63.46;100679.34;2578207;55;20113;-68
2021/09/02 11:15:23;;;;;;;6.12;3.03;;;;;;;15.07;61.24;100688.47;2578181;55;20144;-75
2021/09/02 11:17:56;;;;;;;29.55;8.52;;;;;;;14.95;59.19;100695.88;2573202;55;20507;-68
2021/09/02 11:20:26;;;;;;;21.92;6.87;;;;;;;14.53;58.52;100679.09;2578194;55;20660;-68
2021/09/02 11:23:07;;;;;;;3.42;1.23;;;;;;;14.59;62.18;100691.91;2578167;55;20145;-75
2021/09/02 11:25:44;;;;;;;7.47;2.50;;;;;;;14.86;62.79;100690.38;2573187;55;20114;-70
2021/09/02 11:28:12;;;;;;;9.05;2.35;;;;;;;15.35;59.36;100693.91;2578330;55;20151;-74
2021/09/02 11:30:41;;;;;;;7.53;1.98;;;;;;;15.32;58.33;100689.66;2578084;55;20157;-77
2021/09/02 11:33:09;;;;;;;6.25;2.28;;;;;;;15.17;55.38;100678.53;2578312;55;20124;-76